Orban heliport

BE-0020 · Liège, Wallonia, 比利时

罗盘
风向 的 风向 340° 直升机
风: 7 kt, 3 beaufort
0 ft 1.000 2.000 3.000 4.000 5.000
Cloud Cloud Cloud Cloud Cloud Cloud
BKN 700
METAR EBLG 211020Z 34007KT 7000 -SHRA BKN007 18/16 Q1012 TEMPO 4000 SHRA

METAR Orban heliport - BE-0020

Orban heliport是,比利时中的直升机场。 该机场位于纬度50,63073和经度5,57172。 这个机场没有ICAO代码,我们使用BE-0020作为参考。 机场在Bruxelles FIR中。

该航空气象观测是针对列日机场在2024年6月21日 12:20, 当地时间进行的。

机场观察

风向为340°,速度为7 kt。

可见度为7 km。

有碎云在700 ft的高度。 破损或更高的上限为700 ft。

当前天气为光 阵雨 雨。 温度和风寒是18 °C。 露点为16 °C,相对湿度为88%。 海平面上的气压为1012 hPa (QNH)。

发展趋势

  • 暂时的

    可变方向的风很小或没有。 可见性变为4 km。 重大天气:阵雨 雨。

白天

今天,太阳从05:25升起,在21:54降落。 这适用于Orban heliport,世界夏令时可能有所不同。 当地时间与世界标准时间之间的时差为+2 小时。 夏令时目前正在进行中。

公司介绍

我们没有关于这个机场的公司信息。

体会

到Vliegles.nl去找飞行课程,跳伞和其他飞行体验。 浏览页面,了解Orban heliport附近所有可用的活动。 你也可以使用搜索功能来寻找你所在地附近的特定飞行课程、跳伞或其他飞行体验。

乌云

700 ft BKN 碎云

温度 & 天气

天气 光 阵雨 雨
温度 18 °C
露点 16 °C
相对湿度 88%
Kp-index 0 (0-9)

白天

日出
05:25
中午
13:40
日落
21:54 (9:06)

小工具

你想在你的网站上有一个关于Orban heliport的当前航空天气(METAR)的小部件吗?

显示HTML代码
报告变更